Time;durP1;ratioP1;P1;durP2;ratioP2;P2;SDS_P1;SDS_P2;PMS_P1;PMS_P2;Temp;Humidity;BMP_temperature;BMP_pressure;BME280_temperature;BME280_humidity;BME280_pressure;Samples;Min_cycle;Max_cycle;Signal;HPM_P1;HPM_P2
2021/11/03 00:00:55;;;;;;;13.90;11.23;;;5.70;91.20;;;;;;5014085;28;20163;-72
2021/11/03 00:03:22;;;;;;;15.30;11.40;;;5.70;91.30;;;;;;5026921;28;20038;-72
2021/11/03 00:05:48;;;;;;;15.35;11.43;;;5.70;91.30;;;;;;5008155;28;20109;-73
2021/11/03 00:08:20;;;;;;;14.82;10.88;;;5.60;91.40;;;;;;5010141;28;20112;-72
2021/11/03 00:10:50;;;;;;;12.82;10.10;;;5.60;91.40;;;;;;5011720;28;20038;-73
2021/11/03 00:13:19;;;;;;;14.27;11.30;;;5.60;91.40;;;;;;5010624;28;20104;-73
2021/11/03 00:15:46;;;;;;;14.57;10.95;;;5.50;91.40;;;;;;5007056;28;20048;-73
2021/11/03 00:18:12;;;;;;;13.90;11.07;;;5.50;91.40;;;;;;5001197;28;20042;-72
2021/11/03 00:20:38;;;;;;;12.68;10.27;;;5.50;91.40;;;;;;5014157;28;20038;-72
2021/11/03 00:23:04;;;;;;;13.32;10.00;;;5.40;91.30;;;;;;5006457;28;20030;-72
2021/11/03 00:25:30;;;;;;;13.35;10.48;;;5.30;91.30;;;;;;5007236;28;20393;-72
2021/11/03 00:27:56;;;;;;;12.75;10.60;;;5.30;91.30;;;;;;5008913;28;20053;-73
2021/11/03 00:30:22;;;;;;;15.43;12.27;;;5.30;91.30;;;;;;5007360;28;20038;-73
2021/11/03 00:32:51;;;;;;;14.35;10.98;;;5.20;91.40;;;;;;5011583;28;20033;-73
2021/11/03 00:35:17;;;;;;;15.45;11.48;;;5.10;91.50;;;;;;5008636;28;20410;-74
2021/11/03 00:37:43;;;;;;;13.98;11.10;;;5.20;91.50;;;;;;5008214;28;20026;-72
2021/11/03 00:40:09;;;;;;;13.75;11.23;;;5.20;91.50;;;;;;5007862;28;20033;-75
2021/11/03 00:42:34;;;;;;;13.32;11.15;;;5.10;91.40;;;;;;5007294;28;20038;-77
2021/11/03 00:45:00;;;;;;;13.68;10.43;;;5.10;91.30;;;;;;5007228;28;20056;-72
2021/11/03 00:47:26;;;;;;;15.85;11.48;;;5.10;91.20;;;;;;5013911;28;20057;-74
2021/11/03 00:49:52;;;;;;;14.23;11.20;;;5.00;91.10;;;;;;5007823;28;20042;-72
2021/11/03 00:52:18;;;;;;;13.90;10.90;;;4.90;91.20;;;;;;5011193;28;20061;-72
2021/11/03 00:54:43;;;;;;;13.50;10.95;;;4.90;91.30;;;;;;5023247;28;20030;-75
2021/11/03 00:57:09;;;;;;;15.65;11.52;;;4.90;91.30;;;;;;5008421;28;20041;-72
2021/11/03 00:59:34;;;;;;;15.73;12.43;;;4.90;91.20;;;;;;5011729;28;20113;-77
2021/11/03 01:02:01;;;;;;;15.75;12.68;;;4.80;91.20;;;;;;5006238;28;20061;-73
2021/11/03 01:04:27;;;;;;;14.70;12.27;;;4.80;91.10;;;;;;5007491;28;20169;-73
2021/11/03 01:06:52;;;;;;;16.33;13.40;;;4.80;91.10;;;;;;5008274;28;20034;-73
2021/11/03 01:09:18;;;;;;;16.10;12.80;;;4.70;91.10;;;;;;5005249;28;20045;-72
2021/11/03 01:11:44;;;;;;;15.65;12.63;;;4.70;91.20;;;;;;5008093;28;20056;-72
2021/11/03 01:14:10;;;;;;;14.00;12.32;;;4.70;91.30;;;;;;5007782;28;20121;-72
2021/11/03 01:16:36;;;;;;;14.50;12.65;;;4.70;91.30;;;;;;5007961;28;20037;-72
2021/11/03 01:19:03;;;;;;;15.38;11.73;;;4.70;91.20;;;;;;5005598;28;20085;-72
2021/11/03 01:21:29;;;;;;;15.57;12.73;;;4.60;91.20;;;;;;5009972;28;20507;-74
2021/11/03 01:23:55;;;;;;;14.45;11.75;;;4.60;91.30;;;;;;5012590;28;20037;-75
2021/11/03 01:26:21;;;;;;;15.00;12.98;;;4.60;91.30;;;;;;5008833;28;20052;-73
2021/11/03 01:28:46;;;;;;;17.33;13.82;;;4.60;91.40;;;;;;5010649;28;20584;-72
2021/11/03 01:31:12;;;;;;;16.42;13.85;;;4.60;91.50;;;;;;5008243;28;20042;-72
2021/11/03 01:33:39;;;;;;;16.05;13.27;;;4.60;91.60;;;;;;5008235;28;20036;-73
2021/11/03 01:36:04;;;;;;;15.93;13.20;;;4.60;91.60;;;;;;5006261;28;20160;-72
2021/11/03 01:38:30;;;;;;;17.35;13.88;;;4.60;91.60;;;;;;5006688;28;20113;-72
2021/11/03 01:40:56;;;;;;;16.48;13.95;;;4.60;91.70;;;;;;5006306;28;20121;-72
2021/11/03 01:43:49;;;;;;;15.93;13.30;;;4.50;91.70;;;;;;5006898;28;20038;-72
2021/11/03 01:46:38;;;;;;;17.25;14.43;;;4.50;91.70;;;;;;5001498;28;20382;-74
2021/11/03 01:49:17;;;;;;;17.95;13.90;;;4.40;91.80;;;;;;5026508;28;20045;-72
2021/11/03 01:51:53;;;;;;;16.60;13.00;;;4.40;91.70;;;;;;5021607;28;20133;-72
2021/11/03 01:54:40;;;;;;;15.70;13.57;;;4.40;91.60;;;;;;5007532;28;20034;-72
2021/11/03 01:57:09;;;;;;;14.90;13.25;;;4.30;91.50;;;;;;5006887;28;20030;-75
2021/11/03 01:59:40;;;;;;;17.20;14.88;;;4.30;91.50;;;;;;5010391;28;20037;-72
2021/11/03 02:02:07;;;;;;;18.40;15.77;;;4.30;91.50;;;;;;5006673;28;20498;-73
2021/11/03 02:04:34;;;;;;;22.15;16.08;;;4.30;91.70;;;;;;5006659;28;20113;-72
2021/11/03 02:07:05;;;;;;;18.17;14.68;;;4.30;91.70;;;;;;5005513;28;20057;-73
2021/11/03 02:09:31;;;;;;;19.30;14.13;;;4.30;91.80;;;;;;5004143;28;20045;-73
2021/11/03 02:11:56;;;;;;;15.65;13.55;;;4.30;91.80;;;;;;5006650;28;20463;-72
2021/11/03 02:14:22;;;;;;;15.65;11.70;;;4.30;91.80;;;;;;5006084;28;20041;-77
2021/11/03 02:16:54;;;;;;;15.68;13.00;;;4.30;91.80;;;;;;5014011;28;20304;-72
2021/11/03 02:19:25;;;;;;;16.60;13.55;;;4.30;91.90;;;;;;5004168;28;20125;-77
2021/11/03 02:21:54;;;;;;;16.50;14.60;;;4.30;91.70;;;;;;5009470;28;20034;-72
2021/11/03 02:24:25;;;;;;;16.50;13.80;;;4.20;91.60;;;;;;5006018;28;20085;-71
2021/11/03 02:26:51;;;;;;;18.48;14.75;;;4.10;91.50;;;;;;5008465;28;20038;-72
2021/11/03 02:29:21;;;;;;;20.55;15.00;;;4.20;91.60;;;;;;5020878;28;20392;-72
2021/11/03 02:31:51;;;;;;;19.08;15.98;;;4.20;91.50;;;;;;5006480;28;20394;-71
2021/11/03 02:34:24;;;;;;;21.15;17.23;;;4.20;91.50;;;;;;5006381;28;20048;-75
2021/11/03 02:36:59;;;;;;;20.08;16.60;;;4.20;91.50;;;;;;5007078;28;20081;-72
2021/11/03 02:39:41;;;;;;;19.00;16.38;;;4.10;91.50;;;;;;5018376;28;20040;-72
2021/11/03 02:42:08;;;;;;;19.20;16.77;;;4.20;91.60;;;;;;5005710;28;20046;-71
2021/11/03 02:44:37;;;;;;;20.55;18.27;;;4.20;91.60;;;;;;5005497;28;20117;-72
2021/11/03 02:47:04;;;;;;;20.60;16.65;;;4.20;91.70;;;;;;5007575;28;20046;-72
2021/11/03 02:49:29;;;;;;;17.98;15.25;;;4.30;91.80;;;;;;5006773;28;20034;-75
2021/11/03 02:51:55;;;;;;;19.60;17.13;;;4.30;91.80;;;;;;5004109;28;20029;-72
2021/11/03 02:54:22;;;;;;;18.85;16.35;;;4.40;91.80;;;;;;5005898;28;20037;-73
2021/11/03 02:56:54;;;;;;;18.17;15.90;;;4.40;91.80;;;;;;5006900;28;20064;-73
2021/11/03 02:59:23;;;;;;;19.88;16.65;;;4.40;91.80;;;;;;5005440;28;20069;-72
2021/11/03 03:01:52;;;;;;;20.38;17.48;;;4.50;91.70;;;;;;5022830;28;20122;-72
2021/11/03 03:04:24;;;;;;;19.83;16.25;;;4.50;91.60;;;;;;5005334;28;20026;-72
2021/11/03 03:06:50;;;;;;;19.98;15.93;;;4.60;91.50;;;;;;5004179;28;20040;-72
2021/11/03 03:09:17;;;;;;;21.52;17.73;;;4.50;91.30;;;;;;5005383;28;20042;-71
2021/11/03 03:11:49;;;;;;;21.00;18.80;;;4.60;91.30;;;;;;5008574;28;20030;-75
2021/11/03 03:14:17;;;;;;;18.67;16.65;;;4.60;91.30;;;;;;5010854;28;20038;-72
2021/11/03 03:16:43;;;;;;;20.55;17.27;;;4.60;91.30;;;;;;5010291;28;20029;-71
2021/11/03 03:19:10;;;;;;;21.42;17.77;;;4.60;91.30;;;;;;5011692;28;20042;-72
2021/11/03 03:21:36;;;;;;;21.58;17.73;;;4.70;91.40;;;;;;5010148;28;20041;-72
2021/11/03 03:24:04;;;;;;;22.45;19.27;;;4.70;91.40;;;;;;5013437;28;20112;-73
2021/11/03 03:26:30;;;;;;;19.80;17.65;;;4.70;91.30;;;;;;5006194;28;20401;-72
2021/11/03 03:28:56;;;;;;;21.13;18.02;;;4.70;91.30;;;;;;5012014;28;20763;-71
2021/11/03 03:31:24;;;;;;;19.95;17.13;;;4.70;91.40;;;;;;5013289;28;20037;-72
2021/11/03 03:33:51;;;;;;;22.20;19.00;;;4.80;91.40;;;;;;5008290;28;20042;-72
2021/11/03 03:36:17;;;;;;;19.83;17.70;;;4.80;91.40;;;;;;5006441;28;20473;-73
2021/11/03 03:38:43;;;;;;;19.50;17.40;;;4.90;91.40;;;;;;5022902;28;20386;-72
2021/11/03 03:41:11;;;;;;;21.95;18.30;;;4.90;91.40;;;;;;5013654;28;20038;-76
2021/11/03 03:43:38;;;;;;;21.65;18.90;;;4.90;91.50;;;;;;5007458;28;20470;-73
2021/11/03 03:46:04;;;;;;;20.65;16.88;;;5.00;91.50;;;;;;5009449;28;20053;-72
2021/11/03 03:48:29;;;;;;;20.88;18.55;;;5.00;91.60;;;;;;5009328;28;20508;-72
2021/11/03 03:50:55;;;;;;;19.67;17.42;;;5.10;91.70;;;;;;5009631;28;20026;-73
2021/11/03 03:53:22;;;;;;;20.08;17.95;;;5.10;91.60;;;;;;5009132;28;20048;-72
2021/11/03 03:55:49;;;;;;;20.42;17.27;;;5.10;91.60;;;;;;5013979;28;20385;-71
2021/11/03 03:58:17;;;;;;;19.60;17.00;;;5.10;91.60;;;;;;5009166;28;20042;-71
2021/11/03 04:00:45;;;;;;;22.52;19.02;;;5.10;91.60;;;;;;5023732;28;20049;-72
2021/11/03 04:03:11;;;;;;;20.67;17.67;;;5.10;91.70;;;;;;5004333;28;20351;-73
2021/11/03 04:05:36;;;;;;;21.63;18.70;;;5.10;91.70;;;;;;5005428;28;20034;-71
2021/11/03 04:08:02;;;;;;;19.38;17.33;;;5.10;91.70;;;;;;5007730;28;20049;-73
2021/11/03 04:10:28;;;;;;;23.00;17.90;;;5.10;91.80;;;;;;5012938;28;20034;-73
2021/11/03 04:12:54;;;;;;;19.90;17.77;;;5.20;91.80;;;;;;5012140;28;20135;-72
2021/11/03 04:15:20;;;;;;;22.70;19.60;;;5.20;91.80;;;;;;4996861;28;20046;-72
2021/11/03 04:17:45;;;;;;;20.48;18.08;;;5.20;91.90;;;;;;5007537;28;20045;-72
2021/11/03 04:20:14;;;;;;;20.70;17.75;;;5.20;91.90;;;;;;5006580;28;20065;-74
2021/11/03 04:22:40;;;;;;;20.55;18.13;;;5.20;92.00;;;;;;5003215;28;20029;-73
2021/11/03 04:25:08;;;;;;;19.80;17.70;;;5.20;92.00;;;;;;5010919;28;20045;-73
2021/11/03 04:27:35;;;;;;;19.42;16.92;;;5.30;92.00;;;;;;5008883;28;20133;-72
2021/11/03 04:30:00;;;;;;;21.30;19.13;;;5.30;92.10;;;;;;5012442;28;20062;-75
2021/11/03 04:32:26;;;;;;;21.35;17.38;;;5.30;92.10;;;;;;5009451;28;20169;-75
2021/11/03 04:34:52;;;;;;;19.88;17.40;;;5.30;92.10;;;;;;5008352;28;20041;-72
2021/11/03 04:37:18;;;;;;;19.23;16.77;;;5.30;92.10;;;;;;4999446;28;20327;-73
2021/11/03 04:39:43;;;;;;;21.42;19.00;;;5.30;92.20;;;;;;5006384;28;21086;-74
2021/11/03 04:42:09;;;;;;;20.92;18.33;;;5.40;92.20;;;;;;5009394;28;20037;-73
2021/11/03 04:44:36;;;;;;;21.08;17.75;;;5.30;92.10;;;;;;5006907;28;20038;-72
2021/11/03 04:47:02;;;;;;;21.15;17.98;;;5.30;92.10;;;;;;5010791;28;20394;-73
2021/11/03 04:49:28;;;;;;;23.13;18.55;;;5.30;92.00;;;;;;5005879;28;20492;-72
2021/11/03 04:51:54;;;;;;;20.42;18.30;;;5.20;92.00;;;;;;5023057;28;20038;-71
2021/11/03 04:54:20;;;;;;;20.00;17.67;;;5.20;91.90;;;;;;5007349;28;20029;-73
2021/11/03 04:56:46;;;;;;;19.88;17.75;;;5.10;91.90;;;;;;5005628;28;20545;-72
2021/11/03 04:59:12;;;;;;;21.77;19.00;;;5.10;91.90;;;;;;5013158;28;20038;-72
2021/11/03 05:01:38;;;;;;;21.83;18.98;;;5.10;92.00;;;;;;5012672;28;20042;-72
2021/11/03 05:04:04;;;;;;;22.60;19.25;;;5.10;92.10;;;;;;5009525;28;20034;-72
2021/11/03 05:06:32;;;;;;;24.08;19.15;;;5.10;92.10;;;;;;5008558;28;20042;-72
2021/11/03 05:08:58;;;;;;;24.67;19.25;;;5.00;92.10;;;;;;5007892;28;20576;-76
2021/11/03 05:11:24;;;;;;;21.35;18.80;;;5.00;92.20;;;;;;5013954;28;20041;-72
2021/11/03 05:13:50;;;;;;;21.75;19.40;;;5.00;92.20;;;;;;5011025;28;20037;-71
2021/11/03 05:16:21;;;;;;;21.70;19.40;;;4.90;92.20;;;;;;5008591;28;20069;-71
2021/11/03 05:18:47;;;;;;;22.55;18.48;;;4.90;92.30;;;;;;5008092;28;20107;-72
2021/11/03 05:21:13;;;;;;;23.42;20.02;;;4.80;92.40;;;;;;5003627;28;20580;-72
2021/11/03 05:23:39;;;;;;;21.38;19.15;;;4.80;92.40;;;;;;5009152;28;20042;-73
2021/11/03 05:26:05;;;;;;;23.27;19.70;;;4.80;92.40;;;;;;5008659;28;20499;-72
2021/11/03 05:28:31;;;;;;;25.75;19.77;;;4.70;92.50;;;;;;5007344;28;20061;-73
2021/11/03 05:30:57;;;;;;;21.88;18.92;;;4.70;92.60;;;;;;5010960;28;20049;-72
2021/11/03 05:33:23;;;;;;;21.45;18.95;;;4.60;92.60;;;;;;5011182;28;20036;-72
2021/11/03 05:35:48;;;;;;;23.63;19.75;;;4.60;92.70;;;;;;5008493;28;20030;-72
2021/11/03 05:38:14;;;;;;;25.50;19.67;;;4.60;92.70;;;;;;5008978;28;20833;-73
2021/11/03 05:40:40;;;;;;;21.23;18.42;;;4.60;92.90;;;;;;5003961;28;20077;-73
2021/11/03 05:43:06;;;;;;;22.05;18.92;;;4.50;92.80;;;;;;5010245;28;20049;-74
2021/11/03 05:45:32;;;;;;;22.40;18.67;;;4.50;92.80;;;;;;5008826;28;20030;-73
2021/11/03 05:47:57;;;;;;;21.15;18.23;;;4.50;92.80;;;;;;5006963;28;20046;-74
2021/11/03 05:50:28;;;;;;;20.73;18.20;;;4.40;92.80;;;;;;5009496;28;20452;-74
2021/11/03 05:52:53;;;;;;;20.30;17.77;;;4.30;92.80;;;;;;5008650;28;20026;-77
2021/11/03 05:55:19;;;;;;;21.00;18.55;;;4.30;92.90;;;;;;5002543;28;20544;-74
2021/11/03 05:57:46;;;;;;;20.98;18.77;;;4.30;93.00;;;;;;5011756;28;20040;-78
2021/11/03 06:00:23;;;;;;;22.25;18.50;;;4.30;93.00;;;;;;5007585;28;20025;-73
2021/11/03 06:02:49;;;;;;;20.17;17.52;;;4.20;93.00;;;;;;5006951;28;20061;-73
2021/11/03 06:05:15;;;;;;;21.23;17.95;;;4.20;93.00;;;;;;5005517;28;20065;-73
2021/11/03 06:07:47;;;;;;;21.05;18.25;;;4.20;93.00;;;;;;5010255;28;20124;-74
2021/11/03 06:10:16;;;;;;;20.30;17.70;;;4.10;93.00;;;;;;5008184;28;20088;-73
2021/11/03 06:12:42;;;;;;;22.02;19.67;;;4.10;93.00;;;;;;5007547;28;20113;-73
2021/11/03 06:15:08;;;;;;;21.27;18.48;;;4.10;93.00;;;;;;5025046;28;20125;-72
2021/11/03 06:17:34;;;;;;;21.52;19.23;;;4.10;93.00;;;;;;5007850;28;20433;-73
2021/11/03 06:19:59;;;;;;;21.17;18.65;;;4.10;93.00;;;;;;5007874;28;20073;-72
2021/11/03 06:22:25;;;;;;;22.77;19.88;;;4.10;93.00;;;;;;5009091;28;20030;-72
2021/11/03 06:24:52;;;;;;;20.98;18.08;;;4.10;92.70;;;;;;5008429;28;20050;-73
2021/11/03 06:27:28;;;;;;;22.13;19.02;;;4.10;92.60;;;;;;5008808;28;20038;-72
2021/11/03 06:29:53;;;;;;;22.25;18.63;;;4.10;92.50;;;;;;5005805;28;20030;-73
2021/11/03 06:32:19;;;;;;;21.77;19.48;;;4.10;92.60;;;;;;5005629;28;20037;-72
2021/11/03 06:34:45;;;;;;;23.83;20.20;;;4.10;92.60;;;;;;5026317;28;20066;-74
2021/11/03 06:37:10;;;;;;;24.77;20.50;;;4.10;92.60;;;;;;5018064;28;20042;-74
2021/11/03 06:39:36;;;;;;;23.73;21.13;;;4.10;92.70;;;;;;5004938;28;20037;-72
2021/11/03 06:42:02;;;;;;;26.20;22.75;;;4.10;92.60;;;;;;5004883;28;20401;-74
2021/11/03 06:44:28;;;;;;;24.83;21.88;;;4.00;92.60;;;;;;5007067;28;20118;-74
2021/11/03 06:46:54;;;;;;;25.42;21.10;;;4.00;92.60;;;;;;5006133;28;20527;-73
2021/11/03 06:49:19;;;;;;;25.92;21.50;;;3.90;92.60;;;;;;5011622;28;20048;-73
2021/11/03 06:51:45;;;;;;;23.55;21.05;;;3.90;92.60;;;;;;5008127;28;20037;-72
2021/11/03 06:54:11;;;;;;;21.27;18.83;;;3.90;92.60;;;;;;5010784;28;20065;-72
2021/11/03 06:56:37;;;;;;;21.77;19.27;;;3.90;92.60;;;;;;5008812;28;20046;-72
2021/11/03 06:59:03;;;;;;;25.35;20.75;;;3.90;92.60;;;;;;5008192;28;20034;-72
2021/11/03 07:01:30;;;;;;;27.50;24.40;;;3.90;92.60;;;;;;5007082;28;20041;-72
2021/11/03 07:03:56;;;;;;;34.67;30.98;;;3.90;92.70;;;;;;5008335;28;20041;-73
2021/11/03 07:06:22;;;;;;;31.83;28.48;;;3.90;92.80;;;;;;5008792;28;20026;-80
2021/11/03 07:08:51;;;;;;;30.45;27.23;;;3.90;92.80;;;;;;5007979;28;20053;-72
2021/11/03 07:11:17;;;;;;;27.02;24.17;;;3.80;92.80;;;;;;5023992;28;20034;-73
2021/11/03 07:13:43;;;;;;;26.75;23.73;;;3.90;92.80;;;;;;5007345;28;20079;-72
2021/11/03 07:16:11;;;;;;;26.27;23.52;;;3.90;92.80;;;;;;5008818;28;20033;-74
2021/11/03 07:18:36;;;;;;;26.35;22.95;;;3.90;92.80;;;;;;5006004;28;20061;-73
2021/11/03 07:21:06;;;;;;;27.73;23.02;;;3.90;92.80;;;;;;5008834;28;20038;-73
2021/11/03 07:23:31;;;;;;;25.55;21.75;;;3.90;92.70;;;;;;5007510;28;20185;-71
2021/11/03 07:25:57;;;;;;;26.35;22.17;;;3.90;92.80;;;;;;5005273;28;20469;-72
2021/11/03 07:28:24;;;;;;;25.45;22.70;;;3.90;92.70;;;;;;5008998;28;20045;-72
2021/11/03 07:30:50;;;;;;;26.08;21.15;;;3.90;92.60;;;;;;5007717;28;20184;-72
2021/11/03 07:33:16;;;;;;;24.85;21.30;;;3.90;92.50;;;;;;5008259;28;20152;-72
2021/11/03 07:35:43;;;;;;;24.58;20.23;;;3.90;92.30;;;;;;5007963;28;20117;-72
2021/11/03 07:38:10;;;;;;;25.42;20.02;;;3.90;92.30;;;;;;5007850;28;20087;-75
2021/11/03 07:40:48;;;;;;;25.55;21.10;;;3.90;92.20;;;;;;5006080;28;20053;-71
2021/11/03 07:43:15;;;;;;;24.55;19.23;;;3.90;92.10;;;;;;5006720;28;20040;-72
2021/11/03 07:45:42;;;;;;;24.17;20.25;;;3.90;92.00;;;;;;5009496;28;20041;-74
2021/11/03 07:48:09;;;;;;;25.13;20.65;;;3.90;92.10;;;;;;5005989;28;20410;-74
2021/11/03 07:50:39;;;;;;;24.48;20.85;;;3.90;92.10;;;;;;5009504;28;20041;-74
2021/11/03 07:53:07;;;;;;;22.42;19.75;;;3.90;92.10;;;;;;5007155;28;20681;-75
2021/11/03 07:55:33;;;;;;;28.17;21.63;;;4.00;92.00;;;;;;5008538;28;20049;-73
2021/11/03 07:57:59;;;;;;;26.17;23.05;;;3.90;92.00;;;;;;5004368;28;20041;-72
2021/11/03 08:00:32;;;;;;;29.10;23.50;;;4.00;92.10;;;;;;5005993;28;20038;-74
2021/11/03 08:02:57;;;;;;;30.30;24.17;;;4.10;92.10;;;;;;5005351;28;20504;-72
2021/11/03 08:05:27;;;;;;;28.60;23.65;;;4.10;92.30;;;;;;5010761;28;20091;-72
2021/11/03 08:07:57;;;;;;;33.78;27.75;;;4.20;92.20;;;;;;5006300;28;20048;-75
2021/11/03 08:10:24;;;;;;;35.72;28.55;;;4.30;92.30;;;;;;5009612;28;20117;-72
2021/11/03 08:12:53;;;;;;;36.55;29.38;;;4.30;92.40;;;;;;5008949;28;20446;-73
2021/11/03 08:15:19;;;;;;;37.47;29.63;;;4.50;92.50;;;;;;5024106;28;20123;-73
2021/11/03 08:17:45;;;;;;;34.50;30.65;;;4.50;92.50;;;;;;5009651;28;20466;-75
2021/11/03 08:20:16;;;;;;;33.83;28.83;;;4.60;92.60;;;;;;5011663;28;20034;-72
2021/11/03 08:22:42;;;;;;;37.60;30.65;;;4.70;92.60;;;;;;5008325;28;20131;-74
2021/11/03 08:25:08;;;;;;;38.38;32.00;;;4.80;92.60;;;;;;5005134;28;20125;-73
2021/11/03 08:27:34;;;;;;;36.03;30.35;;;4.90;92.60;;;;;;5021308;28;20045;-72
2021/11/03 08:30:00;;;;;;;35.20;31.00;;;5.10;92.50;;;;;;5007767;28;20034;-72
2021/11/03 08:32:31;;;;;;;33.50;29.63;;;5.30;92.50;;;;;;5008739;28;20045;-72
2021/11/03 08:34:57;;;;;;;46.63;39.20;;;5.50;92.60;;;;;;5007198;28;20084;-73
2021/11/03 08:37:30;;;;;;;38.17;33.85;;;5.70;92.40;;;;;;5004445;28;20117;-73
2021/11/03 08:39:58;;;;;;;40.42;36.17;;;5.90;92.40;;;;;;5008745;28;20402;-76
2021/11/03 08:42:24;;;;;;;38.72;34.60;;;6.10;92.00;;;;;;5005387;28;20386;-73
2021/11/03 08:44:54;;;;;;;42.42;36.45;;;6.40;92.10;;;;;;5006647;28;20026;-73
2021/11/03 08:47:20;;;;;;;40.50;36.28;;;6.60;92.00;;;;;;5005479;28;20073;-72
2021/11/03 08:49:46;;;;;;;38.25;34.13;;;6.80;91.60;;;;;;5006564;28;20034;-72
2021/11/03 08:52:11;;;;;;;40.20;34.75;;;6.90;90.80;;;;;;5007484;28;20117;-70
2021/11/03 08:54:39;;;;;;;35.92;31.65;;;7.10;90.50;;;;;;5015630;28;20546;-70
2021/11/03 08:57:05;;;;;;;39.38;33.47;;;7.30;89.50;;;;;;5006881;28;20389;-71
2021/11/03 08:59:31;;;;;;;37.72;33.17;;;7.50;88.60;;;;;;5007686;28;20161;-70
2021/11/03 09:01:56;;;;;;;42.15;36.17;;;7.60;88.30;;;;;;5006215;28;20492;-70
2021/11/03 09:04:22;;;;;;;43.55;36.40;;;7.70;88.10;;;;;;5007731;28;20095;-71
2021/11/03 09:06:48;;;;;;;36.72;33.03;;;7.80;87.40;;;;;;5006156;28;20038;-73
2021/11/03 09:09:14;;;;;;;38.85;33.65;;;7.90;86.80;;;;;;4998272;28;20398;-70
2021/11/03 09:11:39;;;;;;;36.28;32.15;;;7.90;87.00;;;;;;5006768;28;20060;-73
2021/11/03 09:14:05;;;;;;;35.95;31.30;;;8.10;87.10;;;;;;5005326;28;20038;-69
2021/11/03 09:16:32;;;;;;;39.08;32.70;;;8.10;86.80;;;;;;5007792;28;20647;-69
2021/11/03 09:18:58;;;;;;;38.55;32.47;;;8.10;87.10;;;;;;5006239;28;20054;-71
2021/11/03 09:21:24;;;;;;;38.60;31.90;;;8.20;87.10;;;;;;5004757;28;20045;-69
2021/11/03 09:23:51;;;;;;;37.92;30.98;;;8.10;86.50;;;;;;5004781;28;20141;-69
2021/11/03 09:26:19;;;;;;;37.42;32.50;;;8.30;87.20;;;;;;5005403;28;20030;-71
2021/11/03 09:28:46;;;;;;;43.63;33.95;;;8.40;86.60;;;;;;5004541;28;20080;-74
2021/11/03 09:31:12;;;;;;;44.97;36.08;;;8.50;86.90;;;;;;5004893;28;20034;-69
2021/11/03 09:33:39;;;;;;;37.25;32.13;;;8.70;87.20;;;;;;5021867;28;20040;-69
2021/11/03 09:36:10;;;;;;;32.17;28.00;;;8.90;86.40;;;;;;5006347;28;20041;-70
2021/11/03 09:38:37;;;;;;;32.53;27.52;;;8.90;84.50;;;;;;5007311;28;20038;-69
2021/11/03 09:41:12;;;;;;;32.17;28.10;;;8.80;84.40;;;;;;5008609;28;20029;-68
2021/11/03 09:43:40;;;;;;;32.20;26.10;;;9.00;84.80;;;;;;5009931;28;20125;-68
2021/11/03 09:46:23;;;;;;;28.13;24.67;;;9.10;84.20;;;;;;5012758;28;20049;-68
2021/11/03 09:49:05;;;;;;;27.00;23.55;;;9.20;83.40;;;;;;5007814;28;20878;-73
2021/11/03 09:51:31;;;;;;;26.42;23.15;;;9.20;83.70;;;;;;5005650;28;20105;-69
2021/11/03 09:54:00;;;;;;;29.90;23.90;;;9.30;83.60;;;;;;5004930;28;20133;-70
2021/11/03 09:56:37;;;;;;;27.52;24.15;;;9.40;83.40;;;;;;5005758;28;20108;-70
2021/11/03 09:59:51;;;;;;;25.75;22.33;;;9.50;83.40;;;;;;5015661;28;20073;-70
2021/11/03 10:02:39;;;;;;;28.50;22.58;;;9.50;83.20;;;;;;4996370;28;20132;-69
2021/11/03 10:05:28;;;;;;;27.88;21.35;;;9.50;83.40;;;;;;5002949;28;20046;-70
2021/11/03 10:07:59;;;;;;;25.30;21.08;;;9.70;83.40;;;;;;5009001;28;20046;-69
2021/11/03 10:10:39;;;;;;;26.25;22.73;;;9.80;83.50;;;;;;5004727;28;20034;-70
2021/11/03 10:13:16;;;;;;;25.63;21.42;;;9.90;82.80;;;;;;5021401;28;20116;-69
2021/11/03 10:16:09;;;;;;;23.48;19.13;;;10.00;82.90;;;;;;5019132;28;20409;-70
2021/11/03 10:18:38;;;;;;;24.88;21.70;;;10.10;82.40;;;;;;5002727;28;20068;-69
2021/11/03 10:21:16;;;;;;;24.67;20.42;;;10.20;82.10;;;;;;5007537;28;20478;-69
2021/11/03 10:23:59;;;;;;;23.15;19.85;;;10.20;81.80;;;;;;5012594;28;20049;-70
2021/11/03 10:26:31;;;;;;;22.25;19.10;;;10.30;82.20;;;;;;5023029;28;20034;-77
2021/11/03 10:29:17;;;;;;;23.30;18.08;;;10.40;81.50;;;;;;5014794;28;20469;-79
2021/11/03 10:31:53;;;;;;;18.77;15.13;;;10.50;80.60;;;;;;5012074;28;20037;-78
2021/11/03 10:34:22;;;;;;;17.95;13.57;;;10.50;79.10;;;;;;5011016;28;20172;-76
2021/11/03 10:37:06;;;;;;;17.33;14.00;;;10.60;78.50;;;;;;5009269;28;20042;-79
2021/11/03 10:40:17;;;;;;;16.92;12.50;;;10.90;78.40;;;;;;5012224;28;20058;-76
2021/11/03 10:43:00;;;;;;;14.77;10.50;;;11.00;76.70;;;;;;5009906;28;20096;-76
2021/11/03 10:45:33;;;;;;;15.05;11.05;;;11.00;75.50;;;;;;5014923;28;20454;-81
2021/11/03 10:48:25;;;;;;;14.32;10.48;;;10.90;75.20;;;;;;5010775;28;20046;-73
2021/11/03 10:50:59;;;;;;;13.18;8.73;;;10.90;74.80;;;;;;5028314;28;20100;-73
2021/11/03 10:54:01;;;;;;;11.27;8.38;;;10.90;74.70;;;;;;5007410;28;20488;-73
2021/11/03 10:56:31;;;;;;;12.52;7.70;;;11.00;73.30;;;;;;5000245;28;20040;-74
2021/11/03 10:59:03;;;;;;;12.57;7.90;;;11.10;72.60;;;;;;5011352;28;20119;-73
2021/11/03 11:01:39;;;;;;;11.57;7.25;;;11.10;73.40;;;;;;5006277;28;20042;-71
2021/11/03 11:04:30;;;;;;;11.00;6.93;;;11.10;72.10;;;;;;5009708;28;20122;-69
2021/11/03 11:07:07;;;;;;;13.38;7.75;;;11.20;72.90;;;;;;5028026;28;20038;-78
2021/11/03 11:09:41;;;;;;;11.88;7.72;;;11.40;71.80;;;;;;5012798;28;20401;-68
2021/11/03 11:12:25;;;;;;;13.50;9.00;;;11.40;71.10;;;;;;5023607;28;20091;-69
2021/11/03 11:14:55;;;;;;;14.25;10.05;;;11.40;72.00;;;;;;5010127;28;20137;-70
2021/11/03 11:17:37;;;;;;;14.00;8.77;;;11.50;71.70;;;;;;5009316;28;20532;-70
2021/11/03 11:20:22;;;;;;;13.13;9.48;;;11.60;72.50;;;;;;5009282;28;20054;-69
2021/11/03 11:22:56;;;;;;;14.90;9.60;;;11.70;71.90;;;;;;5007597;28;20120;-68
2021/11/03 11:25:51;;;;;;;11.48;9.48;;;11.90;71.60;;;;;;5012258;28;20034;-69
2021/11/03 11:28:46;;;;;;;13.57;9.30;;;11.90;71.60;;;;;;5012180;28;20068;-70
2021/11/03 11:31:33;;;;;;;12.32;7.85;;;12.00;71.40;;;;;;5006869;28;20285;-71
2021/11/03 11:33:59;;;;;;;13.52;8.52;;;12.00;70.30;;;;;;5009399;28;20073;-70
2021/11/03 11:36:56;;;;;;;10.02;6.70;;;12.20;70.80;;;;;;5007188;28;20076;-70
2021/11/03 11:39:31;;;;;;;9.60;6.22;;;12.30;70.60;;;;;;4997297;28;20116;-70
2021/11/03 11:42:18;;;;;;;11.52;6.90;;;12.30;70.00;;;;;;5009375;28;20119;-73
2021/11/03 11:44:58;;;;;;;9.48;5.90;;;12.20;69.70;;;;;;5010232;28;20026;-70
2021/11/03 11:47:31;;;;;;;9.65;5.68;;;12.10;69.50;;;;;;5010047;28;20085;-69
2021/11/03 11:49:56;;;;;;;10.25;6.10;;;12.20;70.10;;;;;;5022249;28;20469;-75
2021/11/03 11:52:27;;;;;;;11.10;5.68;;;12.20;68.90;;;;;;5008893;28;20032;-69
2021/11/03 11:55:12;;;;;;;9.55;5.18;;;12.20;70.10;;;;;;5006833;28;20033;-70
2021/11/03 11:57:56;;;;;;;8.95;5.10;;;12.40;70.20;;;;;;5006823;28;20088;-73
2021/11/03 12:00:25;;;;;;;8.80;4.93;;;12.40;69.00;;;;;;5022847;28;20037;-71
2021/11/03 12:02:51;;;;;;;9.93;5.72;;;12.40;68.80;;;;;;5022385;28;20400;-69
2021/11/03 12:05:55;;;;;;;7.32;4.32;;;12.50;69.70;;;;;;5000870;28;20347;-69
2021/11/03 12:08:50;;;;;;;8.73;4.90;;;12.40;68.60;;;;;;5002049;28;20050;-70
2021/11/03 12:11:27;;;;;;;9.52;6.05;;;12.30;68.80;;;;;;4974949;28;20960;-70
2021/11/03 12:13:56;;;;;;;9.00;5.45;;;12.40;68.90;;;;;;5005916;28;20072;-69
2021/11/03 12:16:31;;;;;;;8.00;4.68;;;12.30;69.00;;;;;;5002417;28;20533;-71
2021/11/03 12:18:59;;;;;;;8.40;5.32;;;12.30;68.30;;;;;;5006922;28;20056;-69
2021/11/03 12:21:24;;;;;;;8.95;5.10;;;12.40;69.20;;;;;;5022519;28;20056;-70
2021/11/03 12:23:55;;;;;;;8.43;5.00;;;12.40;69.00;;;;;;5009010;28;20454;-71
2021/11/03 12:26:27;;;;;;;7.43;4.22;;;12.50;69.00;;;;;;5018232;28;20388;-71
2021/11/03 12:29:11;;;;;;;8.25;4.30;;;12.10;68.20;;;;;;5005631;28;20089;-71
2021/11/03 12:32:00;;;;;;;8.17;4.50;;;12.10;70.30;;;;;;4984940;28;20773;-70
2021/11/03 12:34:38;;;;;;;8.40;5.38;;;12.20;69.90;;;;;;5009001;28;20277;-75
2021/11/03 12:37:07;;;;;;;9.63;5.35;;;12.40;69.20;;;;;;4999507;28;20125;-74
2021/11/03 12:39:32;;;;;;;9.93;5.00;;;12.50;68.40;;;;;;4988115;28;20846;-72
2021/11/03 12:42:17;;;;;;;9.93;5.47;;;12.60;68.80;;;;;;4994395;28;20045;-74
2021/11/03 12:44:54;;;;;;;9.15;5.28;;;12.70;68.50;;;;;;5021418;28;20042;-80
2021/11/03 12:47:26;;;;;;;14.50;6.15;;;12.60;68.90;;;;;;5006282;28;20033;-74
2021/11/03 12:50:19;;;;;;;8.50;5.68;;;12.80;68.80;;;;;;5006644;28;20509;-72
2021/11/03 12:52:47;;;;;;;9.98;6.30;;;12.70;68.10;;;;;;5001118;28;20092;-69